Flight Track Log - Related Links

Times and Time Zones

All times are in EDT time to prevent confusion due to time zone crossing. See the AAL1841 flight status page for this flight to view local times or setup timezone preferences in your user account.

Time Position Orientation Groundspeed Altitude Reporting Facility
EDT Latitude Longitude Course Direction KTS MPH feet Rate Location/Type
Wed 10:28:15 AM 32.8703 -97.0345 318° Northwest  Level FlightAware Approximate
Wed 10:28:55 AM 32.8856 -97.0508 180° South 149 171 1,500  Level FAA TRACON SMA TRACON (SMA)
Wed 10:29:35 AM 32.8539 -97.0508 182° South 171 197 2,700 1,725 Climbing FAA TRACON SMA TRACON (SMA)
Wed 10:30:15 AM 32.8167 -97.0525 180° South 222 255 3,800 2,354 Climbing FAA TRACON SMA TRACON (SMA)
Wed 10:30:54 AM 32.7678 -97.0528 184° South 257 296 5,800 2,962 Climbing FAA TRACON SMA TRACON (SMA)
Wed 10:31:34 AM 32.7172 -97.0567 231° Southwest 267 307 7,700 2,625 Climbing FAA TRACON SMA TRACON (SMA)
Wed 10:32:14 AM 32.6889 -97.0989 270° West 280 322 9,300 1,725 Climbing FAA TRACON SMA TRACON (SMA)
Wed 10:32:54 AM 32.6892 -97.1633 273° West 284 327 10,000 519 Climbing FAA TRACON SMA TRACON (SMA)
Wed 10:33:35 AM 32.6922 -97.2392 274° West 334 384 10,000 75 Level FAA TRACON SMA TRACON (SMA)
Wed 10:34:14 AM 32.6961 -97.3072 273° West 334 384 10,100 1,725 Climbing FAA TRACON SMA TRACON (SMA)
Wed 10:34:55 AM 32.6994 -97.3836 273° West 334 384 12,300 2,815 Climbing FAA TRACON SMA TRACON (SMA)
Wed 10:35:35 AM 32.7025 -97.4542 273° West 345 397 13,900 2,506 Climbing FAA TRACON SMA TRACON (SMA)
Wed 10:36:14 AM 32.7058 -97.5367 273° West 364 419 15,600 2,593 Climbing FAA TRACON SMA TRACON (SMA)
Wed 10:36:56 AM 32.7100 -97.6219 273° West 372 428 17,400 2,519 Climbing FAA TRACON SMA TRACON (SMA)
Wed 10:37:35 AM 32.7133 -97.6983 273° West 377 434 19,000 2,354 Climbing FAA TRACON SMA TRACON (SMA)
Wed 10:38:15 AM 32.7167 -97.7858 274° West 383 441 20,500 2,025 Climbing FAA TRACON SMA TRACON (SMA)
Wed 10:38:55 AM 32.7214 -97.8758 273° West 392 451 21,700 1,650 Climbing FAA TRACON SMA TRACON (SMA)
Wed 10:39:35 AM 32.7244 -97.9572 267° West 402 463 22,700 1,747 Climbing FAA TRACON SMA TRACON (SMA)
Wed 10:40:14 AM 32.7208 -98.0511 263° West 412 474 24,000 1,800 Climbing FAA TRACON SMA TRACON (SMA)
Wed 10:40:55 AM 32.7106 -98.1467 259° West 423 487 25,100 1,660 Climbing FAA TRACON SMA TRACON (SMA)
Wed 10:41:48 AM 32.6906 -98.2675 261° West 435 501 26,600 1,540 Climbing Fort Worth Center
Wed 10:42:48 AM 32.6731 -98.3933 262° West 435 501 28,000 1,650 Climbing Fort Worth Center
Wed 10:43:48 AM 32.6550 -98.5411 261° West 425 489 29,900 1,000 Climbing Fort Worth Center
Wed 10:44:48 AM 32.6369 -98.6789 262° West 425 489 30,000 50 Climbing Fort Worth Center
Wed 10:45:48 AM 32.6208 -98.8144 261° West 425 489 30,000  Level Fort Worth Center
Wed 10:46:48 AM 32.6025 -98.9522 262° West 425 489 30,000  Level Fort Worth Center
Wed 10:47:48 AM 32.5861 -99.0900 260° West 425 489 30,000  Level Fort Worth Center
Wed 10:48:48 AM 32.5656 -99.2253 262° West 425 489 30,000  Level Fort Worth Center
Wed 10:49:48 AM 32.5489 -99.3628 261° West 425 489 30,000  Level Fort Worth Center
Wed 10:50:48 AM 32.5300 -99.4981 261° West 425 489 30,000  Level Fort Worth Center
Wed 10:51:48 AM 32.5108 -99.6356 260° West 425 489 30,000  Level Fort Worth Center
Wed 10:52:48 AM 32.4897 -99.7728 263° West 425 489 30,000  Level Fort Worth Center
Wed 10:53:48 AM 32.4744 -99.9103 268° West 425 489 30,000  Level Fort Worth Center
Wed 10:54:48 AM 32.4694 -100.0481 266° West 425 489 30,000  Level Fort Worth Center
Wed 10:55:48 AM 32.4628 -100.1686 266° West 420 483 30,000  Level Fort Worth Center
Wed 10:56:48 AM 32.4556 -100.3039 266° West 420 483 30,000  Level Fort Worth Center
Wed 10:57:48 AM 32.4483 -100.4389 266° West 420 483 30,000  Level Fort Worth Center
Wed 10:58:48 AM 32.4406 -100.5764 266° West 420 483 30,000  Level Fort Worth Center
Wed 10:59:48 AM 32.4331 -100.7092 266° West 420 483 30,000  Level Fort Worth Center
Wed 11:00:48 AM 32.4253 -100.8467 265° West 420 483 30,000  Level Fort Worth Center
Wed 11:01:48 AM 32.4150 -100.9842 266° West 420 483 30,000  Level Fort Worth Center
Wed 11:02:48 AM 32.4069 -101.1192 267° West 420 483 30,000  Level Fort Worth Center
Wed 11:03:48 AM 32.4008 -101.2517 264° West 420 483 30,000  Level Fort Worth Center
Wed 11:04:48 AM 32.3878 -101.4036 266° West 420 483 30,000  Level Fort Worth Center
Wed 11:05:48 AM 32.3792 -101.5411 265° West 425 489 30,000  Level Fort Worth Center
Wed 11:06:48 AM 32.3683 -101.6783 266° West 425 489 30,000  Level Fort Worth Center
Wed 11:07:48 AM 32.3597 -101.8106 265° West 425 489 30,000  Level Fort Worth Center
Wed 11:08:48 AM 32.3486 -101.9478 265° West 425 489 30,000  Level Fort Worth Center
Wed 11:09:48 AM 32.3392 -102.0850 264° West 419 482 30,000  Level Fort Worth Center
Wed 11:10:48 AM 32.3283 -102.2097 264° West 424 488 30,000  Level Fort Worth Center
Wed 11:11:48 AM 32.3167 -102.3467 266° West 424 488 30,000  Level Fort Worth Center
Wed 11:12:48 AM 32.3092 -102.4864 264° West 424 488 30,000  Level Fort Worth Center
Wed 11:13:48 AM 32.2967 -102.6356 265° West 424 488 30,000  Level Fort Worth Center
Wed 11:14:48 AM 32.2867 -102.7775 264° West 424 488 30,000  Level Fort Worth Center
Wed 11:15:48 AM 32.2744 -102.9144 264° West 424 488 30,000  Level Fort Worth Center
Wed 11:16:48 AM 32.2622 -103.0486 266° West 424 488 30,000  Level Fort Worth Center
Wed 11:17:48 AM 32.2539 -103.1856 265° West 424 488 30,000  Level Fort Worth Center
Wed 11:18:48 AM 32.2433 -103.3200 265° West 424 488 30,000  Level Fort Worth Center
Wed 11:19:48 AM 32.2328 -103.4544 263° West 424 488 30,000  Level Fort Worth Center
Wed 11:21:05 AM 32.2169 -103.6131 263° West 436 502 30,000  Level Albuquerque Center
Wed 11:22:05 AM 32.2025 -103.7511 263° West 423 487 30,000  Level Albuquerque Center
Wed 11:23:05 AM 32.1878 -103.8867 266° West 423 487 30,000  Level Albuquerque Center
Wed 11:24:05 AM 32.1794 -104.0339 263° West 423 487 30,000  Level Albuquerque Center
Wed 11:25:05 AM 32.1664 -104.1669 265° West 418 481 30,000  Level Albuquerque Center
Wed 11:26:05 AM 32.1553 -104.3044 264° West 418 481 30,000  Level Albuquerque Center
Wed 11:27:05 AM 32.1442 -104.4397 261° West 418 481 30,000  Level Albuquerque Center
Wed 11:28:05 AM 32.1264 -104.5728 264° West 423 487 30,000  Level Albuquerque Center
Wed 11:29:05 AM 32.1150 -104.7103 263° West 428 493 30,000  Level Albuquerque Center
Wed 11:30:05 AM 32.1011 -104.8453 264° West 428 493 30,000  Level Albuquerque Center
Wed 11:31:05 AM 32.0892 -104.9781 262° West 428 493 30,000  Level Albuquerque Center
Wed 11:32:05 AM 32.0731 -105.1156 264° West 428 493 30,000  Level Albuquerque Center
Wed 11:33:05 AM 32.0608 -105.2481 263° West 428 493 30,000  Level Albuquerque Center
Wed 11:34:05 AM 32.0467 -105.3856 264° West 428 493 30,000  Level Albuquerque Center
Wed 11:35:05 AM 32.0342 -105.5203 263° West 428 493 30,000  Level Albuquerque Center
Wed 11:36:05 AM 32.0194 -105.6528 263° West 428 493 30,000  Level Albuquerque Center
Wed 11:37:05 AM 32.0067 -105.7828 262° West 428 493 30,000  Level Albuquerque Center
Wed 11:38:05 AM 31.9914 -105.9078 263° West 428 493 30,000  Level Albuquerque Center
Wed 11:39:05 AM 31.9783 -106.0403 262° West 423 487 30,000  Level Albuquerque Center
Wed 11:40:05 AM 31.9631 -106.1750 268° West 423 487 30,000  Level Albuquerque Center
Wed 11:41:05 AM 31.9581 -106.3094 274° West 423 487 30,000  Level Albuquerque Center
Wed 11:42:05 AM 31.9656 -106.4464 275° West 423 487 30,000  Level Albuquerque Center
Wed 11:43:05 AM 31.9747 -106.5808 274° West 423 487 30,000  Level Albuquerque Center
Wed 11:44:05 AM 31.9819 -106.7153 275° West 423 487 30,000  Level Albuquerque Center
Wed 11:45:05 AM 31.9931 -106.8547 274° West 423 487 30,000  Level Albuquerque Center
Wed 11:46:05 AM 32.0017 -106.9892 275° West 423 487 30,000  Level Albuquerque Center
Wed 11:47:05 AM 32.0125 -107.1358 274° West 423 487 30,000  Level Albuquerque Center
Wed 11:48:05 AM 32.0211 -107.2731 274° West 423 487 30,000  Level Albuquerque Center
Wed 11:49:05 AM 32.0294 -107.4100 274° West 423 487 30,000  Level Albuquerque Center
Wed 11:50:05 AM 32.0375 -107.5447 273° West 423 487 30,000  Level Albuquerque Center
Wed 11:51:05 AM 32.0436 -107.6792 275° West 423 487 30,000  Level Albuquerque Center
Wed 11:52:05 AM 32.0536 -107.8117 274° West 423 487 30,000  Level Albuquerque Center
Wed 11:53:05 AM 32.0614 -107.9464 274° West 423 487 30,000  Level Albuquerque Center
Wed 11:54:05 AM 32.0689 -108.0858 275° West 423 487 30,000  Level Albuquerque Center
Wed 11:55:05 AM 32.0783 -108.2231 274° West 423 487 30,000  Level Albuquerque Center
Wed 11:56:05 AM 32.0858 -108.3578 275° West 423 487 30,000  Level Albuquerque Center
Wed 11:57:05 AM 32.0950 -108.4953 273° West 423 487 30,000  Level Albuquerque Center
Wed 11:58:05 AM 32.1019 -108.6325 274° West 423 487 30,000  Level Albuquerque Center
Wed 11:59:05 AM 32.1089 -108.7672 274° West 423 487 30,000  Level Albuquerque Center
Wed 12:00:05 PM 32.1175 -108.9022 273° West 423 487 30,000  Level Albuquerque Center
Wed 12:01:05 PM 32.1242 -109.0394 274° West 423 487 30,000 -450 Level Albuquerque Center
Wed 12:02:05 PM 32.1325 -109.1769 275° West 423 487 29,100 -950 Descending Albuquerque Center
Wed 12:03:05 PM 32.1428 -109.3167 278° West 423 487 28,100 -1,000 Descending Albuquerque Center
Wed 12:04:05 PM 32.1592 -109.4519 279° West 423 487 27,100 -1,000 Descending Albuquerque Center
Wed 12:05:05 PM 32.1775 -109.5897 278° West 423 487 26,100 -1,700 Descending Albuquerque Center
Wed 12:06:05 PM 32.1919 -109.7128 278° West 412 474 23,700 -2,350 Descending Albuquerque Center
Wed 12:07:05 PM 32.2081 -109.8408 265° West 405 466 21,400 -2,350 Descending Albuquerque Center
Wed 12:08:05 PM 32.1994 -109.9581 262° West 381 438 19,000 -2,150 Descending Albuquerque Center
Wed 12:09:05 PM 32.1864 -110.0706 258° West 364 419 17,100 -2,147 Descending Albuquerque Center
Wed 12:09:40 PM 32.1747 -110.1339 273° West 350 403 15,600 -2,250 Descending Albuquerque Center
Wed 12:11:05 PM 32.1817 -110.2811 283° West 345 397 12,600 -2,110 Descending Albuquerque Center
Wed 12:12:05 PM 32.2019 -110.3875 280° West 340 391 10,500 -1,300 Descending Albuquerque Center
Wed 12:13:05 PM 32.2178 -110.4933 281° West 335 386 10,000 -250 Descending Albuquerque Center
Wed 12:14:05 PM 32.2358 -110.5994 282° West 335 386 10,000 -390 Level Albuquerque Center
Wed 12:15:08 PM 32.2558 -110.7131 282° West 299 344 9,200 -1,154 Descending Albuquerque Center
Wed 12:16:15 PM 32.2739 -110.8097 282° West 276 318 7,500 -985 Descending Albuquerque Center
Wed 12:17:22 PM 32.2900 -110.8986 251° West 240 276 7,000 -567 Descending Albuquerque Center
Wed 12:18:22 PM 32.2692 -110.9689 221° Southwest 233 268 6,300 -744 Descending Albuquerque Center
Wed 12:19:23 PM 32.2239 -111.0161 221° Southwest 210 242 5,500 -787 Descending Albuquerque Center

Login

Don't have an account? Register now (free) for customized features, flight alerts, and more!